Time;durP1;ratioP1;P1;durP2;ratioP2;P2;SDS_P1;SDS_P2;PMS_P1;PMS_P2;Temp;Humidity;BMP_temperature;BMP_pressure;BME280_temperature;BME280_humidity;BME280_pressure;Samples;Min_cycle;Max_cycle;Signal;HPM_P1;HPM_P2
2021/12/15 00:01:26;;;;;;;2.97;2.78;;;15.70;29.00;;;;;;5079850;28;20209;-62
2021/12/15 00:03:53;;;;;;;3.42;3.03;;;15.70;29.00;;;;;;5079711;28;20513;-62
2021/12/15 00:06:21;;;;;;;3.25;2.95;;;15.70;29.00;;;;;;5079232;28;20239;-62
2021/12/15 00:08:51;;;;;;;3.25;2.95;;;15.70;29.00;;;;;;5079008;28;20286;-62
2021/12/15 00:11:20;;;;;;;3.15;2.95;;;15.70;29.00;;;;;;5079025;28;20205;-62
2021/12/15 00:13:48;;;;;;;3.10;2.80;;;15.70;29.10;;;;;;5078920;28;20287;-62
2021/12/15 00:16:16;;;;;;;2.80;2.60;;;15.70;29.10;;;;;;5079230;28;20575;-61
2021/12/15 00:18:44;;;;;;;2.90;2.70;;;15.70;29.10;;;;;;5079043;28;20331;-62
2021/12/15 00:21:15;;;;;;;2.60;2.40;;;15.70;29.10;;;;;;5078810;28;20287;-62
2021/12/15 00:23:43;;;;;;;2.78;2.58;;;15.60;29.00;;;;;;5078701;28;20200;-62
2021/12/15 00:26:11;;;;;;;2.88;2.67;;;15.60;29.00;;;;;;5078925;28;20291;-62
2021/12/15 00:28:42;;;;;;;2.80;2.60;;;15.60;29.00;;;;;;5079306;28;20279;-62
2021/12/15 00:31:09;;;;;;;2.80;2.60;;;15.60;29.10;;;;;;5078993;28;20204;-62
2021/12/15 00:33:38;;;;;;;2.55;2.35;;;15.60;29.00;;;;;;5078616;28;20287;-62
2021/12/15 00:36:06;;;;;;;2.90;2.70;;;15.60;29.00;;;;;;5079044;28;20315;-62
2021/12/15 00:38:34;;;;;;;3.10;2.90;;;15.60;29.00;;;;;;5078856;28;20231;-61
2021/12/15 00:41:02;;;;;;;3.20;3.00;;;15.60;29.00;;;;;;5078640;28;20291;-61
2021/12/15 00:43:29;;;;;;;2.88;2.67;;;15.60;29.00;;;;;;5078308;28;20204;-61
2021/12/15 00:45:58;;;;;;;3.05;2.50;;;15.60;29.00;;;;;;5079273;28;20299;-62
2021/12/15 00:48:26;;;;;;;2.60;2.40;;;15.60;29.60;;;;;;5077822;28;20614;-62
2021/12/15 00:50:53;;;;;;;2.50;2.30;;;15.60;29.00;;;;;;5078347;28;20614;-62
2021/12/15 00:53:20;;;;;;;2.42;2.22;;;15.50;29.00;;;;;;5078160;28;20315;-61
2021/12/15 00:55:48;;;;;;;2.58;2.38;;;15.50;28.90;;;;;;5078880;28;20315;-62
2021/12/15 00:58:16;;;;;;;2.80;2.60;;;15.50;29.00;;;;;;5077612;28;20323;-63
2021/12/15 01:00:47;;;;;;;2.45;2.25;;;15.50;28.90;;;;;;5078931;28;20291;-61
2021/12/15 01:03:17;;;;;;;2.40;2.20;;;15.50;29.00;;;;;;5077694;28;20246;-61
2021/12/15 01:05:48;;;;;;;2.47;2.28;;;15.50;29.00;;;;;;5077856;28;20619;-61
2021/12/15 01:08:19;;;;;;;2.60;2.40;;;15.50;29.00;;;;;;5077975;28;20354;-62
2021/12/15 01:11:02;;;;;;;2.60;2.40;;;15.50;29.00;;;;;;5077804;28;20299;-62
2021/12/15 01:21:51;;;;;;;2.30;2.10;;;15.40;28.90;;;;;;5077622;28;20503;-62
2021/12/15 01:24:19;;;;;;;2.60;2.40;;;15.40;28.90;;;;;;5077569;28;20291;-62
2021/12/15 01:26:46;;;;;;;2.45;2.25;;;15.40;29.00;;;;;;5077973;28;20205;-62
2021/12/15 01:29:14;;;;;;;2.63;2.42;;;15.40;28.90;;;;;;5077887;28;20294;-61
2021/12/15 01:31:41;;;;;;;2.47;2.28;;;15.40;28.90;;;;;;5078037;28;20315;-62
2021/12/15 01:34:10;;;;;;;2.20;2.00;;;15.40;28.90;;;;;;5077407;28;20283;-61
2021/12/15 01:36:38;;;;;;;2.50;2.30;;;15.40;28.90;;;;;;5077535;28;20307;-62
2021/12/15 01:39:06;;;;;;;2.05;1.95;;;15.40;28.90;;;;;;5077969;28;20319;-61
2021/12/15 01:41:34;;;;;;;2.35;2.15;;;15.40;29.00;;;;;;5078382;28;20287;-62
2021/12/15 01:46:59;;;;;;;1.95;1.85;;;15.40;28.90;;;;;;5039663;28;20201;-62
2021/12/15 01:49:40;;;;;;;2.10;1.90;;;15.40;28.90;;;;;;5078089;28;20236;-61
2021/12/15 01:52:11;;;;;;;2.50;2.30;;;15.40;28.90;;;;;;5078348;28;20303;-62
2021/12/15 01:54:41;;;;;;;1.90;1.80;;;15.30;28.90;;;;;;5077448;28;20294;-62
2021/12/15 01:57:11;;;;;;;1.90;1.80;;;15.30;28.90;;;;;;5078243;28;20204;-62
2021/12/15 01:59:39;;;;;;;2.17;2.08;;;15.30;28.90;;;;;;5078169;28;20228;-61
2021/12/15 02:02:08;;;;;;;2.10;2.00;;;15.30;28.90;;;;;;5078050;28;20295;-61
2021/12/15 02:04:37;;;;;;;2.05;1.95;;;15.30;28.90;;;;;;5078058;28;20295;-62
2021/12/15 02:07:08;;;;;;;2.00;1.90;;;15.30;28.90;;;;;;5077872;28;20335;-61
2021/12/15 02:12:35;;;;;;;2.10;1.90;;;15.30;28.90;;;;;;5136269;27;20545;-61
2021/12/15 02:15:04;;;;;;;1.98;1.88;;;15.30;28.90;;;;;;5135974;27;20467;-61
2021/12/15 02:17:32;;;;;;;1.80;1.70;;;15.30;28.90;;;;;;5135986;27;20226;-61
2021/12/15 02:19:59;;;;;;;2.10;1.90;;;15.20;28.90;;;;;;5135945;27;20284;-61
2021/12/15 02:22:30;;;;;;;2.00;1.90;;;15.20;28.90;;;;;;5136253;27;20289;-61
2021/12/15 02:24:57;;;;;;;2.13;2.00;;;15.20;28.90;;;;;;5136306;27;20232;-61
2021/12/15 02:27:31;;;;;;;1.80;1.70;;;15.20;28.90;;;;;;5135920;27;20226;-60
2021/12/15 02:30:06;;;;;;;2.00;1.90;;;15.20;28.90;;;;;;5135914;27;20194;-61
2021/12/15 02:32:46;;;;;;;1.92;1.83;;;15.20;28.90;;;;;;5136156;27;20557;-61
2021/12/15 02:38:00;;;;;;;2.05;1.92;;;15.20;28.90;;;;;;5135463;28;20243;-61
2021/12/15 02:40:27;;;;;;;1.75;1.65;;;15.10;28.90;;;;;;5135807;28;20202;-60
2021/12/15 02:42:54;;;;;;;2.05;1.85;;;15.20;29.00;;;;;;5135495;27;20290;-60
2021/12/15 02:45:24;;;;;;;2.25;2.05;;;15.20;29.00;;;;;;5135645;27;20684;-61
2021/12/15 02:47:52;;;;;;;2.10;2.00;;;15.10;28.90;;;;;;5135630;27;20297;-61
2021/12/15 02:50:24;;;;;;;2.30;2.10;;;15.10;28.90;;;;;;5135014;27;20297;-61
2021/12/15 02:52:52;;;;;;;2.00;1.90;;;15.10;28.90;;;;;;5135301;27;20282;-61
2021/12/15 02:55:21;;;;;;;1.80;1.70;;;15.10;28.90;;;;;;5135622;27;20530;-61
2021/12/15 02:57:49;;;;;;;1.80;1.70;;;15.10;28.90;;;;;;5134886;27;20282;-61
2021/12/15 03:00:21;;;;;;;2.03;1.92;;;15.10;28.90;;;;;;5135010;27;20297;-61
2021/12/15 03:03:20;;;;;;;1.98;1.88;;;15.10;28.90;;;;;;5135089;27;20202;-61
2021/12/15 03:05:52;;;;;;;1.92;1.80;;;15.10;28.90;;;;;;5135312;27;20202;-61
2021/12/15 03:08:23;;;;;;;2.00;1.90;;;15.10;28.90;;;;;;5135441;27;20214;-60
2021/12/15 03:16:25;;;;;;;2.30;1.90;;;15.00;28.90;;;;;;5134412;28;20202;-61
2021/12/15 03:18:52;;;;;;;2.00;1.90;;;15.00;28.90;;;;;;5134760;27;20289;-61
2021/12/15 03:21:24;;;;;;;1.77;1.63;;;15.00;28.90;;;;;;5135020;27;20604;-61
2021/12/15 03:23:55;;;;;;;1.80;1.70;;;15.00;28.90;;;;;;5121339;27;20211;-61
2021/12/15 03:26:28;;;;;;;1.95;1.85;;;15.00;28.90;;;;;;5120326;28;20203;-61
2021/12/15 03:34:44;;;;;;;2.33;1.70;;;15.00;28.90;;;;;;5120964;28;20198;-61
2021/12/15 03:37:23;;;;;;;2.13;1.92;;;15.00;28.90;;;;;;5121049;28;20213;-61
2021/12/15 03:39:53;;;;;;;1.65;1.55;;;15.00;28.90;;;;;;5121155;28;20253;-61
2021/12/15 03:42:27;;;;;;;1.98;1.70;;;15.00;28.90;;;;;;5120407;28;20286;-61
2021/12/15 03:44:56;;;;;;;1.90;1.80;;;14.90;28.80;;;;;;5120508;28;20297;-61
2021/12/15 03:47:31;;;;;;;1.90;1.80;;;15.00;28.90;;;;;;5120595;28;20213;-61
2021/12/15 03:50:01;;;;;;;1.75;1.65;;;14.90;28.90;;;;;;5120369;28;20288;-62
2021/12/15 03:52:28;;;;;;;1.90;1.80;;;14.90;28.80;;;;;;5120442;28;20245;-61
2021/12/15 03:54:56;;;;;;;1.85;1.75;;;14.90;28.80;;;;;;5120254;28;20285;-61
2021/12/15 03:57:25;;;;;;;2.15;1.70;;;14.90;28.80;;;;;;5120486;28;20305;-62
2021/12/15 03:59:54;;;;;;;1.80;1.70;;;14.90;28.80;;;;;;5120287;28;20652;-61
2021/12/15 04:02:22;;;;;;;1.65;1.55;;;14.90;28.90;;;;;;5120314;28;20199;-61
2021/12/15 04:04:50;;;;;;;1.80;1.70;;;14.90;28.90;;;;;;5120241;28;20277;-61
2021/12/15 04:07:19;;;;;;;1.80;1.70;;;14.90;28.90;;;;;;5119807;28;20282;-61
2021/12/15 04:09:47;;;;;;;2.05;1.95;;;14.90;28.90;;;;;;5120380;28;20282;-61
2021/12/15 04:12:15;;;;;;;1.88;1.75;;;14.90;28.90;;;;;;5119816;28;20321;-61
2021/12/15 04:14:46;;;;;;;1.58;1.48;;;14.90;28.90;;;;;;5120347;28;20241;-61
2021/12/15 04:17:30;;;;;;;1.60;1.50;;;14.90;28.90;;;;;;5119647;28;20199;-61
2021/12/15 04:20:00;;;;;;;1.80;1.70;;;14.90;28.90;;;;;;5119671;28;20543;-61
2021/12/15 04:22:28;;;;;;;1.63;1.52;;;14.90;28.90;;;;;;5119727;28;20302;-61
2021/12/15 04:24:58;;;;;;;1.77;1.67;;;14.80;28.90;;;;;;5119973;28;20541;-61
2021/12/15 04:27:26;;;;;;;1.73;1.63;;;14.80;28.80;;;;;;5119758;28;20286;-61
2021/12/15 04:29:54;;;;;;;1.88;1.77;;;14.80;28.90;;;;;;5120034;28;20210;-61
2021/12/15 04:32:28;;;;;;;1.80;1.70;;;14.80;28.90;;;;;;5119578;28;20315;-61
2021/12/15 04:34:56;;;;;;;1.92;1.83;;;14.80;28.90;;;;;;5118761;28;20291;-61
2021/12/15 04:37:23;;;;;;;1.65;1.55;;;14.80;28.90;;;;;;5119502;28;20294;-61
2021/12/15 04:39:51;;;;;;;1.90;1.80;;;14.80;28.80;;;;;;5119418;28;20294;-61
2021/12/15 04:42:20;;;;;;;1.70;1.60;;;14.80;28.90;;;;;;5119357;28;20294;-61
2021/12/15 04:44:49;;;;;;;1.55;1.45;;;14.80;28.90;;;;;;5118853;28;20299;-60
2021/12/15 04:47:17;;;;;;;1.58;1.48;;;14.80;28.90;;;;;;5119334;27;20203;-61
2021/12/15 04:49:50;;;;;;;1.55;1.45;;;14.80;28.90;;;;;;5118987;28;20256;-61
2021/12/15 04:52:20;;;;;;;1.42;1.33;;;14.80;28.90;;;;;;5118435;28;20690;-61
2021/12/15 04:54:47;;;;;;;1.63;1.52;;;14.80;28.90;;;;;;5118758;28;20286;-61
2021/12/15 04:57:17;;;;;;;1.63;1.40;;;14.80;28.90;;;;;;5118501;28;20297;-61
2021/12/15 04:59:45;;;;;;;1.60;1.50;;;14.80;28.90;;;;;;5118957;28;20211;-61
2021/12/15 05:02:13;;;;;;;1.80;1.70;;;14.70;28.80;;;;;;5118683;28;20293;-62
2021/12/15 05:04:45;;;;;;;1.73;1.63;;;14.70;28.90;;;;;;5118367;28;20526;-61
2021/12/15 05:07:13;;;;;;;1.67;1.58;;;14.70;28.90;;;;;;5118076;28;20313;-61
2021/12/15 05:09:41;;;;;;;1.70;1.60;;;14.70;28.90;;;;;;5118079;28;20282;-61
2021/12/15 05:12:09;;;;;;;1.60;1.50;;;14.70;28.90;;;;;;5118004;28;20262;-61
2021/12/15 05:14:36;;;;;;;1.67;1.58;;;14.70;28.90;;;;;;5118525;28;20297;-61
2021/12/15 05:17:04;;;;;;;1.80;1.70;;;14.70;28.90;;;;;;5118210;28;20229;-61
2021/12/15 05:19:32;;;;;;;1.70;1.60;;;14.70;28.90;;;;;;5118214;28;20297;-61
2021/12/15 05:22:00;;;;;;;1.60;1.50;;;14.70;28.90;;;;;;5118246;27;20281;-61
2021/12/15 05:24:31;;;;;;;1.52;1.42;;;14.70;28.90;;;;;;5118677;28;20242;-61
2021/12/15 05:27:00;;;;;;;1.77;1.67;;;14.70;28.90;;;;;;5118397;28;20203;-61
2021/12/15 05:29:28;;;;;;;1.50;1.40;;;14.70;28.90;;;;;;5118018;28;20298;-61
2021/12/15 05:31:56;;;;;;;1.42;1.33;;;14.70;28.90;;;;;;5117855;28;20223;-61
2021/12/15 05:34:25;;;;;;;1.95;1.85;;;14.60;28.80;;;;;;5117878;28;20524;-60
2021/12/15 05:36:53;;;;;;;1.77;1.67;;;14.60;28.90;;;;;;5117109;28;20195;-61
2021/12/15 05:39:23;;;;;;;2.92;1.73;;;14.70;28.90;;;;;;5117479;28;20209;-61
2021/12/15 05:41:51;;;;;;;1.67;1.58;;;14.60;28.90;;;;;;5117437;28;20293;-61
2021/12/15 05:44:20;;;;;;;1.77;1.58;;;14.60;29.50;;;;;;5117667;28;20649;-61
2021/12/15 05:46:47;;;;;;;1.73;1.63;;;14.60;28.90;;;;;;5116518;28;20238;-61
2021/12/15 05:49:15;;;;;;;1.60;1.50;;;14.60;28.90;;;;;;5117115;28;20245;-61
2021/12/15 05:51:42;;;;;;;1.70;1.60;;;14.60;28.90;;;;;;5117082;28;20603;-60
2021/12/15 05:54:10;;;;;;;1.85;1.75;;;14.60;28.90;;;;;;5116903;28;20234;-61
2021/12/15 05:56:39;;;;;;;1.58;1.48;;;14.60;28.90;;;;;;5116007;28;20203;-61
2021/12/15 05:59:07;;;;;;;1.88;1.77;;;14.60;28.90;;;;;;5116494;28;20301;-61
2021/12/15 06:01:35;;;;;;;1.67;1.50;;;14.60;28.90;;;;;;5116371;28;20281;-61
2021/12/15 06:04:04;;;;;;;1.80;1.70;;;14.60;28.90;;;;;;5116290;28;20282;-61
2021/12/15 06:06:31;;;;;;;1.80;1.70;;;14.60;28.90;;;;;;5115674;28;20285;-61
2021/12/15 06:08:58;;;;;;;1.60;1.50;;;14.50;28.90;;;;;;5115114;28;20291;-61
2021/12/15 06:11:26;;;;;;;1.58;1.48;;;14.50;28.90;;;;;;5114911;28;20331;-61
2021/12/15 06:13:55;;;;;;;1.55;1.45;;;14.60;28.90;;;;;;5115658;28;20289;-61
2021/12/15 06:16:23;;;;;;;1.75;1.65;;;14.50;28.90;;;;;;5115378;28;20203;-61
2021/12/15 06:18:52;;;;;;;1.75;1.65;;;14.60;28.90;;;;;;5115326;28;20297;-61
2021/12/15 06:21:21;;;;;;;1.77;1.67;;;14.50;28.90;;;;;;5114654;28;20206;-61
2021/12/15 06:23:50;;;;;;;1.67;1.58;;;14.60;28.90;;;;;;5114355;28;20281;-61
2021/12/15 06:26:19;;;;;;;2.10;1.92;;;14.50;28.90;;;;;;5115386;28;20293;-62
2021/12/15 06:28:47;;;;;;;2.10;1.90;;;14.50;28.90;;;;;;5114874;28;20297;-61
2021/12/15 06:31:18;;;;;;;2.00;1.80;;;14.50;28.90;;;;;;5114768;28;20291;-61
2021/12/15 06:33:47;;;;;;;2.10;1.90;;;14.50;28.90;;;;;;5121701;28;20305;-61
2021/12/15 06:36:20;;;;;;;1.77;1.67;;;14.50;28.90;;;;;;5135560;28;20593;-61
2021/12/15 06:38:49;;;;;;;1.70;1.60;;;14.50;28.90;;;;;;5136567;28;20201;-61
2021/12/15 06:41:18;;;;;;;2.00;1.90;;;14.50;28.90;;;;;;5136224;28;20267;-61
2021/12/15 06:43:50;;;;;;;1.63;1.52;;;14.50;28.90;;;;;;5135521;28;20198;-61
2021/12/15 06:46:44;;;;;;;2.40;1.60;;;14.50;28.90;;;;;;5135160;28;20281;-61
2021/12/15 07:00:17;;;;;;;1.70;1.60;;;14.40;28.90;;;;;;5123393;27;20191;-61
2021/12/15 07:02:46;;;;;;;1.70;1.60;;;14.40;28.90;;;;;;5139696;27;20293;-60
2021/12/15 07:05:14;;;;;;;1.77;1.67;;;14.40;28.90;;;;;;5139250;27;20281;-61
2021/12/15 07:07:44;;;;;;;2.17;1.98;;;14.40;28.90;;;;;;5139738;27;20226;-61
2021/12/15 07:10:14;;;;;;;1.70;1.60;;;14.40;28.90;;;;;;5139224;27;20297;-61
2021/12/15 07:12:41;;;;;;;1.92;1.83;;;14.40;28.90;;;;;;5139268;27;20222;-62
2021/12/15 07:15:10;;;;;;;2.20;2.00;;;14.40;28.90;;;;;;5139433;27;20233;-61
2021/12/15 07:17:39;;;;;;;1.90;1.80;;;14.40;28.90;;;;;;5138829;27;20198;-61
2021/12/15 07:20:31;;;;;;;1.88;1.77;;;14.40;28.90;;;;;;5139367;27;20289;-61
2021/12/15 07:23:00;;;;;;;1.60;1.50;;;14.40;28.90;;;;;;5139337;27;20671;-61
2021/12/15 07:25:28;;;;;;;2.20;2.00;;;14.40;28.90;;;;;;5140072;27;20297;-61
2021/12/15 07:27:56;;;;;;;1.70;1.60;;;14.40;28.90;;;;;;5139925;27;20315;-61
2021/12/15 07:30:24;;;;;;;1.83;1.73;;;14.30;28.90;;;;;;5139377;27;20244;-61
2021/12/15 07:32:52;;;;;;;2.03;1.85;;;14.40;29.00;;;;;;5139138;27;20222;-61
2021/12/15 07:35:21;;;;;;;2.03;1.92;;;14.40;28.90;;;;;;5139732;27;20280;-61
2021/12/15 07:37:49;;;;;;;2.05;1.95;;;14.30;28.90;;;;;;5138994;27;20296;-61
2021/12/15 07:40:21;;;;;;;2.13;2.00;;;14.40;29.00;;;;;;5138724;27;20202;-61
2021/12/15 07:43:05;;;;;;;1.80;1.70;;;14.30;28.90;;;;;;5139179;27;20198;-61
2021/12/15 07:45:34;;;;;;;1.83;1.73;;;14.30;28.90;;;;;;5137907;27;20221;-61
2021/12/15 07:48:02;;;;;;;1.92;1.83;;;14.30;28.90;;;;;;5137598;27;20203;-61
2021/12/15 07:50:34;;;;;;;1.88;1.77;;;14.30;28.90;;;;;;5139006;27;20233;-61
2021/12/15 07:53:02;;;;;;;1.92;1.73;;;14.30;28.90;;;;;;5137643;27;20317;-60
2021/12/15 07:55:29;;;;;;;2.17;1.98;;;14.30;28.90;;;;;;5138237;27;20297;-61
2021/12/15 07:57:57;;;;;;;1.73;1.63;;;14.30;29.00;;;;;;5138239;27;20202;-61
2021/12/15 08:00:26;;;;;;;1.80;1.70;;;14.30;29.00;;;;;;5138730;27;20213;-61
2021/12/15 08:02:53;;;;;;;2.00;1.80;;;14.30;29.00;;;;;;5138493;27;20198;-61
2021/12/15 08:05:22;;;;;;;1.70;1.60;;;14.30;29.00;;;;;;5138354;27;20206;-61
2021/12/15 08:07:50;;;;;;;2.03;1.85;;;14.30;29.00;;;;;;5138409;27;20296;-61
2021/12/15 08:10:20;;;;;;;2.60;1.85;;;14.30;29.00;;;;;;5138191;27;20208;-61
2021/12/15 08:12:49;;;;;;;2.15;1.95;;;14.30;29.00;;;;;;5137744;27;20313;-61
2021/12/15 08:15:17;;;;;;;1.95;1.85;;;14.30;29.00;;;;;;5138749;27;20249;-61
2021/12/15 08:17:50;;;;;;;1.95;1.85;;;14.30;29.00;;;;;;5138269;27;20505;-61
2021/12/15 08:20:20;;;;;;;1.80;1.70;;;14.30;29.00;;;;;;5138308;27;20205;-61
2021/12/15 08:22:47;;;;;;;2.08;1.90;;;14.20;28.90;;;;;;5137130;27;20289;-62
2021/12/15 08:25:18;;;;;;;1.90;1.75;;;14.20;28.90;;;;;;5137635;27;20301;-61
2021/12/15 08:27:46;;;;;;;2.33;2.13;;;14.20;29.00;;;;;;5138668;27;20300;-61
2021/12/15 08:30:20;;;;;;;1.73;1.63;;;14.20;29.00;;;;;;5138023;27;20291;-61
2021/12/15 08:32:48;;;;;;;2.08;1.88;;;14.20;29.00;;;;;;5138237;27;20851;-61
2021/12/15 08:35:17;;;;;;;2.05;1.88;;;14.20;29.00;;;;;;5137604;27;20676;-61
2021/12/15 08:37:45;;;;;;;1.90;1.75;;;14.20;28.90;;;;;;5137475;27;20313;-61
2021/12/15 08:40:13;;;;;;;2.10;1.90;;;14.20;28.90;;;;;;5136539;27;20681;-61
2021/12/15 08:42:42;;;;;;;2.00;1.90;;;14.20;28.90;;;;;;5137234;27;20580;-61
2021/12/15 08:45:10;;;;;;;1.95;1.85;;;14.20;29.00;;;;;;5137285;27;20286;-61
2021/12/15 08:47:39;;;;;;;2.10;1.90;;;14.20;29.00;;;;;;5137608;27;20301;-61
2021/12/15 08:50:10;;;;;;;1.83;1.73;;;14.20;29.00;;;;;;5137926;27;20212;-61
2021/12/15 08:52:37;;;;;;;2.42;2.22;;;14.20;29.00;;;;;;5136927;27;20229;-61
2021/12/15 08:55:07;;;;;;;2.22;2.03;;;14.20;29.00;;;;;;5136107;27;20212;-61
2021/12/15 08:57:34;;;;;;;2.13;2.00;;;14.20;29.00;;;;;;5137462;27;20206;-61
2021/12/15 09:00:05;;;;;;;1.90;1.80;;;14.20;29.00;;;;;;5137604;27;20297;-61
2021/12/15 09:02:32;;;;;;;2.15;1.98;;;14.20;29.00;;;;;;5137011;27;20209;-62
2021/12/15 09:05:00;;;;;;;1.90;1.80;;;14.20;29.00;;;;;;5137444;27;20281;-60
2021/12/15 09:07:27;;;;;;;2.00;1.90;;;14.20;29.00;;;;;;5136334;27;20194;-60
2021/12/15 09:09:54;;;;;;;2.03;1.83;;;14.20;29.00;;;;;;5136662;27;20288;-61
2021/12/15 09:12:22;;;;;;;1.90;1.80;;;14.20;29.00;;;;;;5137440;27;20240;-61
2021/12/15 09:14:49;;;;;;;2.28;2.08;;;14.10;28.90;;;;;;5137300;27;20244;-61
2021/12/15 09:17:18;;;;;;;2.30;2.10;;;14.10;29.60;;;;;;5137124;27;20288;-61
2021/12/15 09:19:45;;;;;;;2.03;1.83;;;14.20;29.00;;;;;;5136719;27;20212;-61
2021/12/15 09:22:12;;;;;;;2.40;2.20;;;14.20;29.00;;;;;;5136447;27;20198;-61
2021/12/15 09:24:40;;;;;;;2.13;1.92;;;14.20;29.00;;;;;;5136557;27;20289;-61
2021/12/15 09:27:08;;;;;;;1.95;1.85;;;14.20;29.10;;;;;;5135886;27;20564;-61
2021/12/15 09:29:35;;;;;;;2.30;2.10;;;14.10;29.00;;;;;;5136111;27;20304;-61
2021/12/15 09:32:03;;;;;;;2.08;1.92;;;14.10;28.90;;;;;;5136917;27;20580;-61
2021/12/15 09:34:31;;;;;;;2.13;2.00;;;14.10;29.00;;;;;;5136064;27;20317;-61
2021/12/15 09:37:02;;;;;;;2.42;2.10;;;14.10;29.00;;;;;;5136074;27;20244;-61
2021/12/15 09:39:30;;;;;;;2.08;1.88;;;14.10;28.90;;;;;;5136547;27;20202;-61
2021/12/15 09:41:59;;;;;;;35.45;22.42;;;14.10;29.00;;;;;;5135924;27;20271;-61
2021/12/15 09:44:28;;;;;;;37.15;23.80;;;14.10;29.00;;;;;;5136090;27;20772;-61
2021/12/15 09:47:16;;;;;;;28.70;17.65;;;14.10;29.00;;;;;;5135946;27;20203;-61
2021/12/15 10:03:49;;;;;;;21.70;14.60;;;14.10;29.40;;;;;;5115091;28;20608;-61
2021/12/15 10:06:30;;;;;;;19.20;13.38;;;14.20;29.60;;;;;;5115634;28;20225;-61
2021/12/15 10:11:52;;;;;;;23.75;13.00;;;14.20;29.60;;;;;;5114542;28;20286;-61
2021/12/15 10:17:39;;;;;;;18.13;11.15;;;14.30;30.30;;;;;;5113574;28;20190;-62
2021/12/15 10:20:08;;;;;;;15.27;10.40;;;14.30;30.20;;;;;;5114654;28;20198;-61
2021/12/15 10:22:42;;;;;;;14.60;9.77;;;14.30;30.10;;;;;;5114372;28;20690;-61
2021/12/15 10:25:14;;;;;;;14.55;9.25;;;14.30;30.20;;;;;;5115607;28;20199;-62
2021/12/15 10:27:47;;;;;;;12.98;8.57;;;14.30;30.10;;;;;;5114186;28;20302;-62
2021/12/15 10:30:24;;;;;;;12.23;8.13;;;14.30;30.20;;;;;;5128121;27;20256;-62
2021/12/15 10:32:58;;;;;;;11.10;7.60;;;14.40;30.30;;;;;;5136074;27;20512;-62
2021/12/15 10:35:28;;;;;;;11.57;7.80;;;14.40;30.40;;;;;;5139714;27;20288;-62
2021/12/15 10:38:18;;;;;;;10.48;7.13;;;14.40;30.30;;;;;;5139448;27;20324;-61
2021/12/15 10:40:48;;;;;;;9.05;6.57;;;14.40;30.30;;;;;;5139101;27;20201;-61
2021/12/15 10:43:16;;;;;;;10.02;6.60;;;14.40;30.10;;;;;;5137950;27;20288;-61
2021/12/15 10:45:46;;;;;;;9.57;6.88;;;14.40;30.10;;;;;;5136549;27;20203;-61
2021/12/15 10:48:25;;;;;;;8.40;5.60;;;14.40;30.30;;;;;;5136892;27;20202;-61
2021/12/15 10:50:54;;;;;;;11.40;6.20;;;14.40;30.10;;;;;;5137184;27;20201;-61
2021/12/15 10:53:35;;;;;;;8.13;5.72;;;14.40;30.10;;;;;;5137147;27;20731;-61
2021/12/15 10:56:10;;;;;;;8.95;5.65;;;14.40;30.00;;;;;;5133338;27;20290;-61
2021/12/15 10:58:40;;;;;;;8.05;5.60;;;14.50;30.50;;;;;;5130540;27;20198;-61
2021/12/15 11:01:46;;;;;;;7.72;5.32;;;14.50;30.80;;;;;;5137371;27;20313;-61
2021/12/15 11:04:45;;;;;;;9.88;5.18;;;14.50;30.70;;;;;;5106291;28;20281;-62
2021/12/15 11:07:29;;;;;;;7.85;4.63;;;14.50;30.60;;;;;;5117307;28;20261;-61
2021/12/15 11:10:01;;;;;;;6.10;4.43;;;14.50;30.60;;;;;;5116490;28;20203;-61
2021/12/15 11:12:31;;;;;;;7.30;4.57;;;14.50;30.60;;;;;;5116893;28;20203;-62
2021/12/15 11:15:01;;;;;;;6.55;3.60;;;14.50;30.60;;;;;;5116784;28;20314;-62
2021/12/15 11:17:34;;;;;;;7.15;4.18;;;14.50;30.60;;;;;;5122779;27;20286;-61
2021/12/15 11:20:12;;;;;;;8.13;3.90;;;14.50;30.60;;;;;;5117362;28;20808;-62
2021/12/15 11:22:51;;;;;;;6.22;3.83;;;14.50;30.50;;;;;;5118343;28;20199;-62
2021/12/15 11:25:40;;;;;;;6.60;3.90;;;14.50;30.40;;;;;;5132790;27;20241;-62
2021/12/15 11:28:12;;;;;;;5.70;3.80;;;14.50;30.40;;;;;;5136645;27;20194;-62
2021/12/15 11:30:43;;;;;;;4.85;3.35;;;14.50;30.30;;;;;;5137286;27;20224;-62
2021/12/15 11:33:13;;;;;;;6.82;3.60;;;14.50;30.40;;;;;;5137292;27;20229;-62
2021/12/15 11:35:43;;;;;;;5.03;3.25;;;14.50;30.40;;;;;;5137005;27;20202;-62
2021/12/15 11:38:19;;;;;;;6.50;3.72;;;14.50;30.40;;;;;;5136113;27;20314;-62
2021/12/15 11:41:01;;;;;;;4.85;3.00;;;14.60;30.40;;;;;;5135742;27;20206;-62
2021/12/15 11:43:36;;;;;;;4.60;3.10;;;14.50;30.20;;;;;;5135745;27;20280;-61
2021/12/15 11:46:13;;;;;;;3.70;2.67;;;14.50;30.30;;;;;;5136368;27;20281;-61
2021/12/15 11:48:40;;;;;;;4.38;3.10;;;14.50;30.30;;;;;;5137519;27;20194;-61
2021/12/15 11:51:11;;;;;;;5.20;2.78;;;14.50;30.40;;;;;;5135287;27;20190;-62
2021/12/15 11:53:41;;;;;;;3.47;2.85;;;14.50;30.40;;;;;;5136189;27;20234;-61
2021/12/15 11:56:25;;;;;;;3.25;2.70;;;14.60;30.50;;;;;;5136993;27;20202;-62
2021/12/15 11:58:56;;;;;;;3.45;2.75;;;14.60;30.50;;;;;;5136386;27;20578;-61
2021/12/15 12:01:58;;;;;;;4.25;2.50;;;14.60;30.50;;;;;;5136192;27;20206;-61
2021/12/15 12:04:33;;;;;;;3.53;2.33;;;14.60;30.50;;;;;;5134877;27;20189;-62
2021/12/15 12:07:15;;;;;;;4.15;2.53;;;14.60;30.50;;;;;;5133502;27;20598;-61
2021/12/15 12:09:45;;;;;;;3.35;2.30;;;14.60;30.60;;;;;;5135261;27;20263;-61
2021/12/15 12:12:16;;;;;;;2.83;2.13;;;14.60;30.50;;;;;;5134489;27;20245;-61
2021/12/15 12:14:49;;;;;;;3.38;2.00;;;14.60;30.50;;;;;;5135021;27;20233;-61
2021/12/15 12:17:18;;;;;;;2.97;2.22;;;14.60;30.50;;;;;;5136030;27;20199;-61
2021/12/15 12:19:51;;;;;;;2.10;1.90;;;14.60;30.50;;;;;;5136529;27;20297;-61
2021/12/15 12:22:19;;;;;;;2.17;1.98;;;14.60;30.50;;;;;;5136644;27;20613;-62
2021/12/15 12:24:49;;;;;;;3.85;2.33;;;14.60;30.50;;;;;;5136137;27;20672;-61
2021/12/15 12:27:19;;;;;;;3.08;2.22;;;14.60;30.50;;;;;;5136227;27;20198;-61
2021/12/15 12:29:47;;;;;;;2.92;1.95;;;14.60;30.50;;;;;;5136556;27;20292;-61
2021/12/15 12:32:14;;;;;;;2.80;2.05;;;14.60;30.50;;;;;;5136213;27;20293;-62
2021/12/15 12:34:43;;;;;;;2.85;2.03;;;14.60;30.40;;;;;;5136241;27;20218;-61
2021/12/15 12:37:13;;;;;;;2.03;1.83;;;14.60;31.20;;;;;;5136420;27;20305;-61
2021/12/15 12:39:41;;;;;;;2.30;2.05;;;14.60;30.40;;;;;;5135099;27;20217;-61
2021/12/15 12:42:09;;;;;;;2.97;1.70;;;14.60;30.50;;;;;;5134673;27;20205;-61
2021/12/15 12:44:44;;;;;;;1.88;1.70;;;14.60;30.40;;;;;;5134288;27;20285;-61
2021/12/15 12:47:28;;;;;;;2.22;1.98;;;14.60;30.40;;;;;;5134758;27;20205;-61
2021/12/15 12:50:32;;;;;;;1.90;1.77;;;14.60;30.40;;;;;;5136281;27;20577;-62
2021/12/15 13:01:35;;;;;;;1.88;1.70;;;14.60;30.30;;;;;;5134590;27;20204;-62
2021/12/15 13:04:10;;;;;;;1.70;1.50;;;14.60;30.30;;;;;;5132715;27;20230;-61
2021/12/15 13:06:42;;;;;;;1.60;1.50;;;14.60;30.30;;;;;;5134086;27;20209;-61
2021/12/15 13:09:15;;;;;;;2.53;1.70;;;14.60;30.30;;;;;;5135985;27;20570;-61
2021/12/15 13:11:47;;;;;;;2.10;1.42;;;14.60;30.30;;;;;;5131899;27;20257;-62
2021/12/15 13:14:17;;;;;;;1.40;1.20;;;14.60;30.30;;;;;;5114541;28;20640;-61
2021/12/15 13:16:49;;;;;;;1.50;1.40;;;14.60;30.30;;;;;;5114351;28;20202;-61
2021/12/15 13:19:20;;;;;;;1.73;1.48;;;14.60;30.30;;;;;;5115218;28;20210;-61
2021/12/15 13:22:14;;;;;;;1.52;1.33;;;14.60;30.30;;;;;;5114643;28;20198;-62
2021/12/15 13:30:28;;;;;;;10.45;6.35;;;14.60;30.30;;;;;;5112811;28;20198;-62
2021/12/15 13:33:04;;;;;;;13.82;8.07;;;14.50;30.20;;;;;;5114469;28;20199;-61
2021/12/15 13:35:38;;;;;;;17.13;10.77;;;14.60;30.40;;;;;;5113593;28;20323;-61
2021/12/15 13:38:05;;;;;;;16.13;9.98;;;14.60;30.30;;;;;;5113767;28;20210;-61
2021/12/15 13:41:13;;;;;;;14.05;8.82;;;14.60;30.30;;;;;;5113956;28;20195;-62
2021/12/15 13:43:52;;;;;;;12.85;7.97;;;14.50;30.20;;;;;;5113485;28;20214;-61
2021/12/15 13:46:45;;;;;;;12.25;7.75;;;14.60;30.30;;;;;;5110779;28;20199;-62
2021/12/15 13:49:26;;;;;;;12.25;7.25;;;14.60;30.40;;;;;;5108156;28;20218;-62
2021/12/15 13:52:05;;;;;;;10.88;6.68;;;14.60;30.40;;;;;;5112026;28;20202;-62
2021/12/15 13:55:13;;;;;;;12.30;7.13;;;14.60;30.60;;;;;;5131828;27;20608;-62
2021/12/15 13:57:51;;;;;;;9.70;5.65;;;14.60;30.60;;;;;;5133167;27;20382;-62
2021/12/15 14:00:23;;;;;;;8.65;5.30;;;14.60;30.70;;;;;;5126752;27;20238;-62
2021/12/15 14:03:04;;;;;;;7.20;5.25;;;14.60;30.70;;;;;;5110433;28;20673;-62
2021/12/15 14:05:37;;;;;;;8.65;5.32;;;14.60;30.70;;;;;;5110898;28;20195;-62
2021/12/15 14:08:07;;;;;;;7.47;5.00;;;14.70;30.90;;;;;;5111038;28;20586;-61
2021/12/15 14:10:57;;;;;;;7.45;4.78;;;14.70;30.90;;;;;;5111131;27;20265;-62
2021/12/15 14:13:54;;;;;;;5.20;4.03;;;14.70;30.90;;;;;;5111275;28;20364;-61
2021/12/15 14:16:52;;;;;;;6.10;4.28;;;14.70;30.90;;;;;;5105484;28;20202;-62
2021/12/15 14:19:31;;;;;;;5.47;3.97;;;14.70;31.00;;;;;;5111908;28;20203;-62
2021/12/15 14:22:04;;;;;;;5.53;3.50;;;14.70;31.10;;;;;;5111479;28;20210;-62